Portland International Airport
KPDX : now visible

Airfield :











YOU CAN JOIN US ON...

 
LOGIN :

Register | Disclaimer

   EN    FR    IT 

 









Legend :    VFR   Marginal VFR   IFR   Intensive IFR   Very Intensive IFR
Visi :
Ceiling :
>= 8 km
>= 3000ft
5 to 8 km
1000 to 3000 ft
1500m to 5 km
500 to 1000 ft
800 to 1500m
200 to 500 ft
< 800m
< 200 ft
Symbols :   Thunderstorms  Fog  Heavy snow  Heavy precipitations  Wind > 20 kt







- Airport Elevation : 31 ft
- IATA code : PDX


KPDX - Portland International

CURRENT METAR :
  • 172053Z 31008KT 10SM FEW023 BKN033 06/00 A3020 RMK AO2 SLP227 T00560000 51015

EXPIRED METARs :
  • 171953Z 30004KT 10SM SCT023 BKN032 05/00 A3019 RMK AO2 SLP224 T00500000
  • 171933Z 31005KT 10SM SCT023 BKN032 05/00 A3019 RMK AO2 T00500000
  • 171853Z 00000KT 10SM SCT011 BKN022 04/01 A3017 RMK AO2 SLP218 T00440011

TAF KPDX
Valid from the 17 at 21:00 until the 18 at 18:00 UTC


172054Z 1721/1818 30005KT P6SM SCT025 BKN035
FM180600 VRB03KT P6SM BKN050
FM181200 15002KT P6SM BKN025
KZSE FIR / North America



MET'MAP, your aeronautical weather chart ! - Copyright ORBIFLY December 2007 - Disclaimer

ORBIFLY MET'MAP TEAM :

Programming & Development : Alexandra Zaïnal
Concept & Development : Baudouin d'Aumeries
Co-Development & Prog : Marc-Olivier Méhu
Technical & hardware support : Manuel Goepfert

Contact : metmap@orbifly.com




SOURCES & CREDITS :

   NOAA       Earth
Advisory